createdAt,value
2017-10-10T00:00:35.182Z,65.4
2017-10-10T00:01:36.837Z,65.4
2017-10-10T00:02:38.498Z,65.4
2017-10-10T00:03:40.154Z,65.4
2017-10-10T00:04:41.811Z,65.4
2017-10-10T00:05:43.475Z,65.4
2017-10-10T00:06:45.128Z,65.4
2017-10-10T00:07:46.780Z,65.6
2017-10-10T00:08:51.265Z,65.1
2017-10-10T00:09:52.934Z,65.1
2017-10-10T00:10:54.643Z,65.1
2017-10-10T00:11:56.301Z,65.2
2017-10-10T00:12:57.954Z,65.3
2017-10-10T00:13:59.618Z,65.5
2017-10-10T00:15:01.274Z,65.6
2017-10-10T00:16:02.935Z,65.4
2017-10-10T00:17:04.596Z,65.2
2017-10-10T00:18:06.262Z,65.2
2017-10-10T00:19:07.930Z,65.4
2017-10-10T00:20:09.589Z,65.3
2017-10-10T00:21:11.260Z,65.3
2017-10-10T00:22:12.917Z,65.3
2017-10-10T00:23:14.578Z,65.3
2017-10-10T00:24:16.241Z,65.3
2017-10-10T00:25:17.898Z,65.4
2017-10-10T00:26:19.566Z,65.4
2017-10-10T00:27:21.233Z,65.1
2017-10-10T00:28:22.907Z,65.1
2017-10-10T00:29:24.648Z,65.0
2017-10-10T00:30:26.355Z,65.1
2017-10-10T00:31:28.002Z,65.3
2017-10-10T00:32:29.659Z,65.1
2017-10-10T00:33:31.321Z,65.4
2017-10-10T00:34:32.975Z,65.4
2017-10-10T00:35:34.637Z,65.5
2017-10-10T00:36:36.306Z,65.5
2017-10-10T00:37:37.968Z,65.4
2017-10-10T00:38:39.623Z,64.7
2017-10-10T00:39:41.290Z,65.3
2017-10-10T00:40:42.947Z,64.3
2017-10-10T00:41:44.610Z,64.3
2017-10-10T00:42:46.350Z,64.6
2017-10-10T00:43:48.115Z,64.3
2017-10-10T00:44:49.772Z,64.5
2017-10-10T00:45:51.439Z,64.5
2017-10-10T00:46:53.098Z,64.6
2017-10-10T00:47:54.754Z,64.9
2017-10-10T00:48:56.413Z,64.6
2017-10-10T00:49:58.075Z,64.7
2017-10-10T00:50:59.741Z,64.6
2017-10-10T00:52:01.402Z,64.8
2017-10-10T00:53:03.071Z,64.8
2017-10-10T00:54:04.734Z,65.1
2017-10-10T00:55:06.396Z,64.7
2017-10-10T00:56:08.073Z,64.4
2017-10-10T00:57:09.731Z,64.5
2017-10-10T00:58:11.399Z,64.8
2017-10-10T00:59:13.058Z,64.5
2017-10-10T01:00:14.749Z,64.3
2017-10-10T01:01:16.445Z,63.9
2017-10-10T01:02:18.102Z,63.4
2017-10-10T01:03:19.763Z,63.3
2017-10-10T01:04:21.416Z,63.2
2017-10-10T01:05:23.074Z,62.6
2017-10-10T01:06:24.745Z,62.5
2017-10-10T01:07:26.439Z,62.2
2017-10-10T01:08:28.131Z,61.6
2017-10-10T01:09:29.792Z,60.8
2017-10-10T01:10:31.450Z,60.7
2017-10-10T01:11:33.115Z,60.5
2017-10-10T01:12:34.777Z,60.2
2017-10-10T01:13:36.481Z,59.8
2017-10-10T01:14:38.142Z,59.9
2017-10-10T01:15:39.799Z,60.0
2017-10-10T01:16:41.457Z,60.1
2017-10-10T01:17:43.121Z,59.8
2017-10-10T01:18:44.789Z,59.4
2017-10-10T01:19:46.448Z,59.4
2017-10-10T01:20:48.106Z,59.7
2017-10-10T01:21:49.761Z,59.4
2017-10-10T01:22:51.465Z,59.4
2017-10-10T01:23:53.116Z,59.4
2017-10-10T01:24:54.774Z,59.2
2017-10-10T01:25:56.423Z,58.7
2017-10-10T01:26:58.073Z,58.5
2017-10-10T01:27:59.726Z,58.2
2017-10-10T01:29:01.385Z,58.2
2017-10-10T01:30:03.050Z,58.2
2017-10-10T01:31:04.702Z,58.0
2017-10-10T01:32:06.357Z,58.0
2017-10-10T01:33:08.018Z,58.1
2017-10-10T01:34:09.680Z,57.9
2017-10-10T01:35:11.342Z,58.3
2017-10-10T01:36:13.024Z,58.5
2017-10-10T01:37:14.704Z,58.7
2017-10-10T01:38:16.361Z,58.8
2017-10-10T01:39:18.013Z,58.5
2017-10-10T01:40:19.737Z,58.2
2017-10-10T01:41:21.396Z,57.9
2017-10-10T01:42:23.048Z,58.3
2017-10-10T01:43:24.725Z,58.0
2017-10-10T01:44:26.408Z,58.0
2017-10-10T01:45:28.059Z,58.3
2017-10-10T01:46:29.812Z,58.1
2017-10-10T01:47:31.505Z,57.6
2017-10-10T01:48:33.142Z,58.0
2017-10-10T01:49:34.809Z,58.0
2017-10-10T01:50:36.468Z,58.2
2017-10-10T01:51:38.120Z,59.4
2017-10-10T01:52:39.797Z,58.8
2017-10-10T01:53:41.444Z,59.4
2017-10-10T01:54:43.141Z,58.8
2017-10-10T01:55:44.812Z,59.0
2017-10-10T02:02:03.851Z,58.9
2017-10-10T02:03:05.503Z,59.3
2017-10-10T02:04:07.155Z,59.1
2017-10-10T02:05:08.807Z,58.8
2017-10-10T02:06:10.464Z,58.8
2017-10-10T02:07:12.114Z,58.9
2017-10-10T02:08:13.763Z,58.8
2017-10-10T02:09:15.440Z,59.2
2017-10-10T02:10:17.083Z,59.2
2017-10-10T02:11:18.751Z,58.6
2017-10-10T02:12:20.394Z,59.3
2017-10-10T02:13:22.054Z,58.9
2017-10-10T02:14:23.708Z,59.2
2017-10-10T02:15:25.383Z,59.1
2017-10-10T02:16:27.032Z,58.5
2017-10-10T02:17:28.688Z,58.5
2017-10-10T02:18:30.348Z,58.4
2017-10-10T02:19:32.013Z,58.0
2017-10-10T02:20:33.678Z,57.6
2017-10-10T02:21:35.337Z,57.8
2017-10-10T02:22:36.992Z,57.9
2017-10-10T02:23:38.650Z,57.9
2017-10-10T02:24:40.303Z,57.2
2017-10-10T02:25:41.961Z,57.0
2017-10-10T02:26:46.349Z,57.1
2017-10-10T02:27:47.998Z,57.2
2017-10-10T02:28:49.666Z,57.2
2017-10-10T02:29:51.315Z,57.1
2017-10-10T02:30:52.967Z,57.4
2017-10-10T02:31:54.612Z,57.4
2017-10-10T02:32:56.260Z,57.8
2017-10-10T02:33:57.909Z,57.2
2017-10-10T02:34:59.585Z,58.1
2017-10-10T02:36:01.233Z,57.6
2017-10-10T02:37:02.891Z,57.7
2017-10-10T02:38:04.554Z,58.0
2017-10-10T02:39:06.213Z,57.8
2017-10-10T02:40:07.877Z,57.8
2017-10-10T02:41:09.525Z,58.0
2017-10-10T02:42:11.181Z,58.2
2017-10-10T02:43:12.843Z,58.7
2017-10-10T02:44:14.504Z,58.7
2017-10-10T02:45:16.182Z,58.5
2017-10-10T02:46:17.835Z,58.5
2017-10-10T02:47:19.507Z,58.4
2017-10-10T02:48:21.158Z,58.3
2017-10-10T02:49:22.821Z,58.3
2017-10-10T02:50:24.468Z,58.5
2017-10-10T02:51:26.119Z,58.5
2017-10-10T02:52:27.770Z,58.7
2017-10-10T02:53:29.424Z,58.4
2017-10-10T02:54:31.075Z,59.1
2017-10-10T02:55:32.731Z,59.2
2017-10-10T02:56:34.392Z,58.8
2017-10-10T02:57:36.054Z,58.7
2017-10-10T02:58:37.705Z,59.1
2017-10-10T02:59:39.365Z,58.9
2017-10-10T03:00:41.022Z,59.5
2017-10-10T03:01:42.674Z,59.5
2017-10-10T03:02:44.323Z,59.4
2017-10-10T03:03:45.977Z,59.4
2017-10-10T03:04:47.632Z,59.2
2017-10-10T03:05:49.291Z,59.3
2017-10-10T03:06:50.949Z,59.3
2017-10-10T03:07:52.603Z,59.3
2017-10-10T03:08:54.251Z,59.5
2017-10-10T03:09:55.912Z,58.7
2017-10-10T03:10:57.560Z,59.1
2017-10-10T03:11:59.213Z,58.8
2017-10-10T03:13:00.862Z,58.8
2017-10-10T03:14:02.514Z,59.0
2017-10-10T03:15:04.167Z,59.1
2017-10-10T03:16:05.817Z,58.4
2017-10-10T03:17:08.180Z,58.5
2017-10-10T03:18:10.398Z,58.8
2017-10-10T03:19:12.302Z,58.8
2017-10-10T03:20:14.427Z,58.8
2017-10-10T03:21:16.804Z,58.8
2017-10-10T03:22:18.263Z,58.7
2017-10-10T03:23:19.907Z,58.6
2017-10-10T03:24:21.563Z,58.4
2017-10-10T03:25:23.217Z,58.4
2017-10-10T03:26:24.878Z,58.5
2017-10-10T03:27:26.555Z,58.5
2017-10-10T03:28:28.210Z,58.2
2017-10-10T03:29:29.862Z,58.4
2017-10-10T03:30:31.518Z,58.2
2017-10-10T03:31:33.174Z,58.3
2017-10-10T03:32:34.828Z,58.5
2017-10-10T03:33:36.490Z,58.4
2017-10-10T03:34:38.154Z,58.7
2017-10-10T03:35:39.809Z,58.7
2017-10-10T03:36:41.452Z,58.7
2017-10-10T03:37:43.114Z,58.3
2017-10-10T03:38:44.767Z,57.8
2017-10-10T03:39:46.424Z,58.0
2017-10-10T03:40:48.077Z,58.3
2017-10-10T03:41:49.728Z,58.1
2017-10-10T03:42:51.411Z,58.1
2017-10-10T03:43:53.062Z,58.3
2017-10-10T03:44:54.713Z,58.0
2017-10-10T03:45:56.363Z,57.8
2017-10-10T03:46:58.013Z,57.7
2017-10-10T03:47:59.667Z,57.8
2017-10-10T03:49:01.319Z,57.6
2017-10-10T03:50:03.181Z,57.6
2017-10-10T03:51:04.840Z,57.6
2017-10-10T03:52:06.494Z,57.6
2017-10-10T03:53:08.152Z,58.1
2017-10-10T03:54:09.804Z,57.9
2017-10-10T03:55:11.456Z,57.8
2017-10-10T03:56:13.110Z,57.8
2017-10-10T03:57:14.806Z,57.7
2017-10-10T03:58:16.473Z,57.4
2017-10-10T03:59:18.117Z,57.8
2017-10-10T04:00:19.852Z,57.7
2017-10-10T04:01:21.500Z,57.8
2017-10-10T04:02:23.200Z,58.1
2017-10-10T04:03:24.848Z,58.1
2017-10-10T04:04:26.501Z,57.4
2017-10-10T04:05:28.168Z,57.8
2017-10-10T04:06:29.827Z,57.8
2017-10-10T04:07:31.489Z,57.9
2017-10-10T04:08:33.144Z,57.8
2017-10-10T04:09:34.804Z,57.9
2017-10-10T04:10:36.448Z,57.6
2017-10-10T04:11:38.102Z,57.9
2017-10-10T04:12:39.749Z,57.8
2017-10-10T04:13:41.421Z,57.9
2017-10-10T04:14:43.071Z,58.0
2017-10-10T04:15:44.725Z,58.1
2017-10-10T04:16:46.426Z,57.9
2017-10-10T04:17:48.088Z,58.1
2017-10-10T04:18:49.751Z,58.1
2017-10-10T04:19:51.401Z,58.0
2017-10-10T04:20:53.050Z,57.9
2017-10-10T04:21:54.708Z,58.7
2017-10-10T04:22:56.363Z,58.3
2017-10-10T04:23:58.016Z,58.6
2017-10-10T04:24:59.666Z,58.5
2017-10-10T04:26:01.325Z,58.5
2017-10-10T04:27:02.985Z,58.5
2017-10-10T04:28:04.654Z,59.3
2017-10-10T04:29:06.309Z,59.1
2017-10-10T04:30:07.964Z,58.8
2017-10-10T04:31:09.617Z,59.0
2017-10-10T04:32:11.266Z,58.8
2017-10-10T04:33:12.925Z,58.8
2017-10-10T04:34:14.577Z,58.9
2017-10-10T04:35:16.233Z,58.7
2017-10-10T04:36:17.880Z,59.2
2017-10-10T04:37:19.544Z,59.4
2017-10-10T04:38:21.201Z,58.9
2017-10-10T04:39:22.852Z,59.2
2017-10-10T04:40:24.508Z,59.1
2017-10-10T04:41:26.163Z,59.2
2017-10-10T04:42:27.820Z,59.4
2017-10-10T04:43:29.475Z,58.8
2017-10-10T04:44:31.133Z,59.0
2017-10-10T04:45:32.789Z,58.8
2017-10-10T04:46:34.439Z,59.1
2017-10-10T04:47:36.194Z,58.1
2017-10-10T04:48:37.852Z,58.2
2017-10-10T04:49:39.504Z,58.5
2017-10-10T04:50:41.159Z,58.8
2017-10-10T04:51:43.430Z,58.0
2017-10-10T04:52:45.090Z,57.9
2017-10-10T04:53:46.742Z,58.1
2017-10-10T04:54:48.401Z,57.5
2017-10-10T04:55:50.050Z,56.9
2017-10-10T04:56:51.722Z,57.1
2017-10-10T04:57:53.390Z,56.9
2017-10-10T04:58:55.044Z,57.0
2017-10-10T04:59:56.702Z,56.9
2017-10-10T05:00:58.374Z,56.8
2017-10-10T05:02:00.034Z,56.8
2017-10-10T05:03:01.690Z,56.9
2017-10-10T05:04:03.686Z,56.9
2017-10-10T05:05:05.182Z,56.8
2017-10-10T05:06:06.848Z,56.9
2017-10-10T05:07:10.057Z,56.8
2017-10-10T05:08:11.898Z,56.8
2017-10-10T05:09:13.713Z,56.8
2017-10-10T05:10:15.582Z,56.7
2017-10-10T05:11:17.236Z,56.7
2017-10-10T05:12:18.894Z,56.9
2017-10-10T05:13:20.550Z,56.8
2017-10-10T05:14:22.992Z,56.8
2017-10-10T05:15:24.662Z,56.8
2017-10-10T05:16:26.489Z,56.8
2017-10-10T05:17:28.217Z,56.9
2017-10-10T05:18:30.028Z,57.0
2017-10-10T05:19:31.784Z,57.0
2017-10-10T05:20:33.540Z,56.9
2017-10-10T05:21:35.480Z,57.1
2017-10-10T05:22:37.173Z,57.1
2017-10-10T05:23:38.819Z,57.1
2017-10-10T05:24:40.475Z,57.1
2017-10-10T05:25:44.268Z,57.3
2017-10-10T05:26:45.925Z,56.7
2017-10-10T05:27:47.582Z,56.8
2017-10-10T05:28:49.260Z,57.1
2017-10-10T05:29:50.917Z,56.9
2017-10-10T05:30:52.567Z,56.9
2017-10-10T05:31:54.224Z,56.9
2017-10-10T05:32:55.893Z,56.7
2017-10-10T05:33:57.555Z,56.7
2017-10-10T05:34:59.259Z,57.0
2017-10-10T05:36:00.907Z,57.0
2017-10-10T05:37:05.983Z,56.9
2017-10-10T05:38:08.067Z,56.9
2017-10-10T05:39:10.665Z,56.9
2017-10-10T05:40:12.344Z,56.9
2017-10-10T05:41:14.003Z,56.9
2017-10-10T05:42:16.183Z,56.9
2017-10-10T05:43:17.933Z,56.7
2017-10-10T05:44:19.600Z,56.9
2017-10-10T05:45:21.252Z,57.0
2017-10-10T05:46:22.907Z,57.1
2017-10-10T05:47:24.568Z,57.2
2017-10-10T05:48:26.356Z,57.2
2017-10-10T05:49:28.014Z,57.1
2017-10-10T05:50:29.669Z,57.1
2017-10-10T05:51:31.326Z,56.9
2017-10-10T05:52:32.977Z,56.7
2017-10-10T05:53:34.630Z,57.1
2017-10-10T05:54:36.293Z,56.8
2017-10-10T05:55:37.952Z,56.9
2017-10-10T06:01:29.448Z,56.9
2017-10-10T06:02:31.147Z,56.8
2017-10-10T06:03:32.727Z,57.0
2017-10-10T06:04:34.379Z,56.8
2017-10-10T06:05:36.055Z,57.0
2017-10-10T06:06:37.707Z,56.9
2017-10-10T06:07:39.367Z,56.8
2017-10-10T06:08:41.028Z,56.7
2017-10-10T06:09:42.685Z,56.8
2017-10-10T06:10:44.343Z,57.0
2017-10-10T06:11:46.002Z,57.0
2017-10-10T06:12:47.658Z,57.1
2017-10-10T06:13:49.312Z,57.0
2017-10-10T06:14:51.105Z,57.3
2017-10-10T06:15:52.757Z,57.3
2017-10-10T06:16:54.444Z,56.9
2017-10-10T06:17:56.102Z,57.4
2017-10-10T06:18:57.757Z,57.0
2017-10-10T06:19:59.411Z,57.0
2017-10-10T06:21:01.068Z,57.0
2017-10-10T06:22:02.721Z,57.2
2017-10-10T06:23:04.334Z,57.4
2017-10-10T06:24:05.980Z,57.4
2017-10-10T06:25:07.634Z,57.3
2017-10-10T06:26:09.296Z,57.3
2017-10-10T06:27:10.958Z,56.9
2017-10-10T06:28:13.826Z,56.9
2017-10-10T06:29:15.508Z,56.7
2017-10-10T06:30:17.169Z,56.8
2017-10-10T06:31:20.429Z,57.0
2017-10-10T06:32:22.606Z,56.8
2017-10-10T06:33:24.271Z,57.4
2017-10-10T06:34:43.603Z,57.4
2017-10-10T06:35:45.261Z,57.2
2017-10-10T06:36:48.728Z,57.3
2017-10-10T06:37:50.424Z,56.8
2017-10-10T06:38:52.107Z,56.9
2017-10-10T06:39:53.770Z,57.0
2017-10-10T06:40:55.429Z,56.8
2017-10-10T06:41:57.091Z,56.9
2017-10-10T06:42:58.752Z,56.8
2017-10-10T06:44:00.412Z,57.3
2017-10-10T06:45:02.314Z,57.3
2017-10-10T06:46:03.979Z,57.3
2017-10-10T06:47:05.649Z,57.3
2017-10-10T06:48:07.309Z,56.9
2017-10-10T06:49:09.010Z,56.9
2017-10-10T06:50:10.674Z,57.2
2017-10-10T06:51:12.356Z,57.6
2017-10-10T06:52:14.016Z,57.7
2017-10-10T06:53:15.699Z,59.0
2017-10-10T06:54:17.356Z,58.4
2017-10-10T06:55:19.022Z,58.2
2017-10-10T06:56:20.693Z,58.0
2017-10-10T06:57:22.348Z,57.7
2017-10-10T06:58:24.006Z,58.5
2017-10-10T06:59:25.665Z,58.3
2017-10-10T07:00:27.336Z,57.7
2017-10-10T07:01:28.988Z,57.9
2017-10-10T07:02:30.643Z,58.2
2017-10-10T07:03:32.295Z,58.1
2017-10-10T07:04:33.949Z,58.2
2017-10-10T07:05:35.606Z,58.6
2017-10-10T07:06:37.262Z,58.8
2017-10-10T07:07:39.110Z,59.4
2017-10-10T07:08:40.817Z,59.1
2017-10-10T07:09:42.475Z,59.3
2017-10-10T07:10:44.147Z,59.0
2017-10-10T07:11:45.824Z,59.5
2017-10-10T07:12:47.491Z,59.5
2017-10-10T07:13:49.150Z,59.2
2017-10-10T07:14:50.810Z,59.2
2017-10-10T07:15:52.463Z,59.4
2017-10-10T07:16:54.154Z,59.5
2017-10-10T07:17:55.823Z,59.4
2017-10-10T07:18:57.505Z,60.1
2017-10-10T07:19:59.156Z,59.5
2017-10-10T07:21:00.818Z,59.2
2017-10-10T07:22:02.505Z,60.3
2017-10-10T07:23:04.173Z,60.7
2017-10-10T07:24:05.854Z,62.0
2017-10-10T07:25:07.532Z,62.6
2017-10-10T07:26:09.197Z,61.8
2017-10-10T07:27:10.850Z,61.4
2017-10-10T07:28:12.511Z,61.3
2017-10-10T07:29:14.171Z,61.5
2017-10-10T07:30:15.870Z,60.8
2017-10-10T07:31:17.529Z,60.8
2017-10-10T07:32:19.184Z,61.2
2017-10-10T07:33:20.845Z,61.9
2017-10-10T07:34:22.515Z,62.3
2017-10-10T07:35:24.265Z,62.9
2017-10-10T07:36:25.966Z,63.3
2017-10-10T07:37:27.624Z,63.9
2017-10-10T07:38:29.278Z,64.2
2017-10-10T07:39:30.937Z,63.1
2017-10-10T07:40:32.591Z,62.4
2017-10-10T07:41:34.247Z,62.7
2017-10-10T07:42:35.920Z,62.3
2017-10-10T07:43:37.581Z,62.5
2017-10-10T07:44:39.236Z,63.1
2017-10-10T07:45:40.887Z,63.3
2017-10-10T07:46:42.556Z,63.1
2017-10-10T07:47:44.204Z,63.0
2017-10-10T07:48:45.866Z,63.3
2017-10-10T07:49:47.536Z,62.7
2017-10-10T07:50:49.192Z,63.9
2017-10-10T07:51:50.857Z,63.6
2017-10-10T07:52:52.570Z,64.1
2017-10-10T07:53:54.224Z,65.6
2017-10-10T07:54:55.887Z,65.2
2017-10-10T07:55:57.560Z,65.4
2017-10-10T07:56:59.217Z,64.7
2017-10-10T07:58:00.878Z,65.5
2017-10-10T07:59:02.536Z,65.6
2017-10-10T08:00:04.227Z,66.3
2017-10-10T08:01:05.881Z,66.9
2017-10-10T08:02:08.022Z,66.9
2017-10-10T08:03:11.320Z,65.9
2017-10-10T08:04:12.973Z,70.0
2017-10-10T08:05:14.631Z,69.9
2017-10-10T08:06:16.292Z,70.4
2017-10-10T08:07:17.950Z,69.2
2017-10-10T08:08:20.063Z,70.5
2017-10-10T08:09:21.719Z,71.9
2017-10-10T08:10:23.379Z,72.7
2017-10-10T08:11:25.034Z,72.3
2017-10-10T08:12:26.735Z,71.7
2017-10-10T08:13:28.395Z,73.1
2017-10-10T08:14:30.062Z,72.8
2017-10-10T08:15:31.725Z,72.1
2017-10-10T08:16:33.387Z,71.2
2017-10-10T08:17:35.055Z,71.4
2017-10-10T08:18:36.716Z,70.1
2017-10-10T08:19:38.372Z,69.0
2017-10-10T08:20:40.115Z,67.2
2017-10-10T08:21:41.775Z,68.2
2017-10-10T08:22:43.439Z,69.5
2017-10-10T08:23:45.100Z,69.8
2017-10-10T08:24:46.767Z,69.9
2017-10-10T08:25:48.431Z,69.0
2017-10-10T08:26:50.088Z,68.1
2017-10-10T08:27:51.748Z,67.6
2017-10-10T08:28:53.399Z,66.9
2017-10-10T08:29:55.062Z,66.5
2017-10-10T08:30:56.734Z,66.5
2017-10-10T08:31:58.394Z,66.1
2017-10-10T08:33:00.050Z,66.5
2017-10-10T08:34:01.707Z,65.8
2017-10-10T08:35:03.362Z,65.2
2017-10-10T08:36:05.022Z,65.2
2017-10-10T08:37:06.680Z,67.4
2017-10-10T08:38:08.423Z,67.0
2017-10-10T08:39:10.080Z,66.9
2017-10-10T08:40:11.744Z,66.8
2017-10-10T08:41:13.403Z,66.2
2017-10-10T08:42:15.079Z,65.6
2017-10-10T08:43:16.724Z,64.7
2017-10-10T08:44:18.388Z,64.8
2017-10-10T08:45:20.055Z,64.4
2017-10-10T08:46:21.713Z,64.7
2017-10-10T08:47:23.374Z,64.8
2017-10-10T08:48:25.029Z,64.8
2017-10-10T08:49:26.688Z,66.2
2017-10-10T08:50:28.341Z,66.2
2017-10-10T08:51:30.046Z,66.3
2017-10-10T08:52:31.695Z,65.5
2017-10-10T08:53:33.356Z,66.7
2017-10-10T08:54:35.016Z,64.2
2017-10-10T08:55:36.672Z,65.4
2017-10-10T08:56:38.331Z,65.1
2017-10-10T08:57:39.996Z,64.7
2017-10-10T08:58:41.667Z,65.9
2017-10-10T08:59:43.324Z,66.8
2017-10-10T09:00:44.980Z,67.7
2017-10-10T09:01:46.637Z,67.3
2017-10-10T09:02:48.296Z,69.3
2017-10-10T09:03:49.977Z,68.9
2017-10-10T09:04:51.616Z,68.6
2017-10-10T09:05:53.270Z,68.8
2017-10-10T09:06:54.983Z,67.2
2017-10-10T09:07:56.643Z,70.6
2017-10-10T09:08:58.304Z,69.2
2017-10-10T09:09:59.964Z,68.5
2017-10-10T09:11:01.610Z,67.8
2017-10-10T09:12:03.278Z,68.3
2017-10-10T09:13:04.932Z,68.8
2017-10-10T09:14:06.591Z,67.2
2017-10-10T09:15:08.259Z,66.9
2017-10-10T09:16:09.924Z,67.2
2017-10-10T09:17:11.586Z,67.1
2017-10-10T09:18:13.242Z,65.2
2017-10-10T09:19:14.913Z,64.6
2017-10-10T09:20:16.571Z,64.8
2017-10-10T09:21:18.235Z,64.5
2017-10-10T09:22:19.894Z,64.7
2017-10-10T09:23:21.569Z,64.3
2017-10-10T09:24:23.240Z,65.4
2017-10-10T09:25:24.888Z,64.8
2017-10-10T09:26:27.235Z,65.0
2017-10-10T09:27:28.902Z,64.4
2017-10-10T09:28:30.571Z,64.7
2017-10-10T09:29:32.226Z,64.6
2017-10-10T09:30:33.884Z,65.0
2017-10-10T09:31:35.548Z,65.8
2017-10-10T09:32:37.214Z,66.3
2017-10-10T09:33:38.897Z,67.3
2017-10-10T09:34:40.558Z,68.1
2017-10-10T09:35:42.222Z,67.1
2017-10-10T09:36:43.886Z,66.4
2017-10-10T09:37:45.544Z,66.4
2017-10-10T09:38:47.207Z,65.3
2017-10-10T09:39:48.867Z,64.9
2017-10-10T09:40:50.530Z,64.1
2017-10-10T09:41:52.193Z,64.7
2017-10-10T09:42:53.852Z,65.4
2017-10-10T09:43:55.828Z,66.1
2017-10-10T09:44:58.454Z,65.8
2017-10-10T09:46:00.346Z,64.8
2017-10-10T09:47:07.035Z,67.1
2017-10-10T09:48:09.461Z,68.8
2017-10-10T09:49:11.388Z,67.2
2017-10-10T09:50:13.048Z,67.1
2017-10-10T09:51:14.703Z,66.9
2017-10-10T09:52:16.386Z,67.4
2017-10-10T09:53:18.052Z,69.0
2017-10-10T09:54:19.712Z,68.9
2017-10-10T10:01:07.953Z,70.0
2017-10-10T10:02:09.611Z,69.5
2017-10-10T10:04:01.454Z,71.4
2017-10-10T10:05:03.108Z,70.3
2017-10-10T10:06:04.768Z,70.5
2017-10-10T10:07:06.425Z,70.6
2017-10-10T10:08:08.085Z,68.8
2017-10-10T10:09:11.675Z,70.1
2017-10-10T10:10:13.332Z,69.6
2017-10-10T10:11:15.077Z,68.6
2017-10-10T10:12:16.722Z,68.7
2017-10-10T10:13:18.385Z,67.7
2017-10-10T10:14:20.043Z,68.7
2017-10-10T10:15:21.708Z,68.9
2017-10-10T10:16:23.382Z,70.8
2017-10-10T10:17:25.044Z,68.8
2017-10-10T10:18:26.725Z,69.6
2017-10-10T10:19:28.378Z,69.1
2017-10-10T10:20:30.037Z,69.0
2017-10-10T10:21:31.699Z,68.0
2017-10-10T10:22:33.365Z,69.5
2017-10-10T10:23:35.102Z,67.6
2017-10-10T10:24:36.785Z,69.1
2017-10-10T10:25:38.439Z,67.7
2017-10-10T10:26:40.159Z,68.9
2017-10-10T10:27:41.823Z,67.9
2017-10-10T10:28:43.489Z,69.6
2017-10-10T10:29:45.139Z,71.7
2017-10-10T10:30:46.793Z,71.0
2017-10-10T10:31:48.450Z,71.1
2017-10-10T10:32:50.200Z,71.9
2017-10-10T10:33:51.873Z,72.6
2017-10-10T10:34:53.542Z,71.5
2017-10-10T10:35:55.206Z,70.5
2017-10-10T10:36:56.860Z,70.5
2017-10-10T10:37:58.545Z,71.7
2017-10-10T10:39:00.204Z,72.6
2017-10-10T10:40:01.865Z,73.5
2017-10-10T10:41:03.524Z,73.1
2017-10-10T10:42:05.191Z,74.5
2017-10-10T10:43:06.858Z,73.1
2017-10-10T10:44:08.527Z,71.7
2017-10-10T10:45:10.187Z,73.7
2017-10-10T10:46:11.858Z,75.4
2017-10-10T10:47:13.526Z,73.8
2017-10-10T10:48:15.223Z,73.5
2017-10-10T10:49:16.886Z,74.0
2017-10-10T10:50:18.545Z,73.7
2017-10-10T10:51:20.203Z,75.3
2017-10-10T10:52:21.882Z,73.6
2017-10-10T10:53:23.543Z,72.4
2017-10-10T10:54:25.202Z,71.6
2017-10-10T10:55:26.862Z,71.7
2017-10-10T10:56:28.522Z,71.4
2017-10-10T10:57:30.190Z,71.9
2017-10-10T10:58:31.862Z,73.8
2017-10-10T10:59:33.589Z,73.8
2017-10-10T11:00:35.251Z,72.2
2017-10-10T11:01:36.914Z,70.9
2017-10-10T11:02:38.571Z,72.8
2017-10-10T11:03:40.233Z,75.8
2017-10-10T11:04:41.893Z,74.2
2017-10-10T11:05:43.600Z,77.0
2017-10-10T11:06:45.410Z,74.3
2017-10-10T11:07:47.078Z,74.4
2017-10-10T11:08:48.833Z,76.8
2017-10-10T11:09:50.485Z,76.7
2017-10-10T11:10:52.156Z,78.1
2017-10-10T11:11:55.263Z,76.8
2017-10-10T11:12:56.922Z,77.9
2017-10-10T11:13:58.585Z,79.5
2017-10-10T11:15:00.255Z,79.1
2017-10-10T11:16:01.950Z,79.8
2017-10-10T11:17:03.607Z,78.5
2017-10-10T11:18:05.264Z,76.7
2017-10-10T11:19:06.932Z,76.5
2017-10-10T11:20:08.594Z,78.5
2017-10-10T11:21:10.261Z,82.7
2017-10-10T11:22:11.937Z,83.0
2017-10-10T11:23:13.600Z,83.9
2017-10-10T11:24:15.303Z,85.1
2017-10-10T11:25:16.962Z,83.8
2017-10-10T11:26:18.642Z,81.8
2017-10-10T11:27:20.298Z,82.2
2017-10-10T11:28:21.965Z,84.1
2017-10-10T11:29:23.630Z,83.6
2017-10-10T11:30:25.300Z,87.8
2017-10-10T11:31:26.963Z,84.4
2017-10-10T11:32:28.626Z,84.9
2017-10-10T11:33:30.291Z,87.6
2017-10-10T11:34:31.952Z,88.9
2017-10-10T11:35:33.618Z,91.7
2017-10-10T11:36:35.285Z,88.8
2017-10-10T11:37:36.944Z,91.8
2017-10-10T11:38:38.614Z,91.0
2017-10-10T11:39:40.291Z,91.9
2017-10-10T11:40:41.942Z,93.1
2017-10-10T11:41:43.607Z,97.0
2017-10-10T11:42:45.267Z,96.4
2017-10-10T11:43:46.932Z,96.6
2017-10-10T11:44:48.604Z,95.6
2017-10-10T11:45:50.276Z,95.2
2017-10-10T11:46:51.932Z,96.7
2017-10-10T11:47:53.598Z,96.4
2017-10-10T11:48:55.265Z,97.9
2017-10-10T11:49:56.924Z,97.6
2017-10-10T11:50:58.592Z,96.5
2017-10-10T11:52:00.257Z,96.9
2017-10-10T11:53:01.925Z,95.4
2017-10-10T11:54:03.591Z,94.0
2017-10-10T11:55:05.252Z,94.0
2017-10-10T11:56:06.918Z,94.1
2017-10-10T11:57:08.586Z,95.6
2017-10-10T11:58:10.257Z,95.2
2017-10-10T11:59:11.977Z,95.6
2017-10-10T12:00:13.644Z,94.5
2017-10-10T12:01:15.335Z,95.8
2017-10-10T12:02:17.012Z,95.3
2017-10-10T12:03:18.764Z,95.3
2017-10-10T12:04:20.406Z,96.5
2017-10-10T12:05:22.112Z,97.6
2017-10-10T12:06:23.769Z,95.5
2017-10-10T12:07:25.438Z,96.3
2017-10-10T12:08:27.101Z,96.2
2017-10-10T12:09:28.768Z,96.4
2017-10-10T12:10:30.438Z,97.1
2017-10-10T12:11:32.125Z,97.5
2017-10-10T12:12:33.811Z,95.3
2017-10-10T12:13:35.484Z,97.0
2017-10-10T12:14:37.341Z,97.2
2017-10-10T12:15:39.001Z,97.1
2017-10-10T12:16:40.685Z,95.3
2017-10-10T12:17:42.426Z,96.9
2017-10-10T12:18:44.091Z,95.8
2017-10-10T12:19:45.812Z,97.4
2017-10-10T12:20:47.531Z,95.9
2017-10-10T12:21:49.189Z,94.4
2017-10-10T12:22:50.847Z,94.5
2017-10-10T12:23:52.511Z,93.1
2017-10-10T12:24:54.173Z,93.9
2017-10-10T12:25:56.033Z,95.2
2017-10-10T12:26:57.729Z,95.0
2017-10-10T12:27:59.489Z,95.0
2017-10-10T12:29:01.177Z,95.9
2017-10-10T12:30:02.834Z,94.3
2017-10-10T12:31:04.497Z,94.5
2017-10-10T12:32:06.156Z,95.5
2017-10-10T12:33:07.826Z,96.1
2017-10-10T12:34:09.492Z,95.5
2017-10-10T12:35:11.158Z,96.9
2017-10-10T12:36:12.826Z,95.2
2017-10-10T12:37:14.485Z,96.5
2017-10-10T12:38:16.158Z,96.2
2017-10-10T12:39:17.819Z,95.2
2017-10-10T12:40:19.482Z,95.6
2017-10-10T12:41:21.146Z,96.1
2017-10-10T12:42:22.816Z,97.2
2017-10-10T12:43:24.476Z,96.4
2017-10-10T12:44:26.147Z,97.1
2017-10-10T12:45:27.810Z,96.6
2017-10-10T12:46:29.475Z,95.6
2017-10-10T12:47:31.152Z,94.5
2017-10-10T12:48:32.815Z,94.5
2017-10-10T12:49:34.482Z,93.5
2017-10-10T12:50:36.151Z,95.4
2017-10-10T12:51:37.812Z,94.0
2017-10-10T12:52:39.482Z,93.8
2017-10-10T12:53:41.167Z,93.6
2017-10-10T12:54:42.831Z,93.4
2017-10-10T12:55:44.489Z,92.7
2017-10-10T12:56:46.155Z,92.1
2017-10-10T12:57:47.846Z,91.1
2017-10-10T12:58:49.518Z,90.9
2017-10-10T12:59:51.169Z,90.6
2017-10-10T13:00:52.832Z,90.3
2017-10-10T13:01:54.492Z,89.8
2017-10-10T13:02:56.282Z,88.4
2017-10-10T13:03:57.959Z,88.7
2017-10-10T13:04:59.624Z,89.1
2017-10-10T13:06:01.287Z,88.9
2017-10-10T13:07:02.955Z,88.3
2017-10-10T13:08:04.611Z,89.0
2017-10-10T13:09:06.270Z,87.8
2017-10-10T13:10:07.937Z,88.8
2017-10-10T13:11:09.600Z,87.8
2017-10-10T13:12:11.267Z,88.6
2017-10-10T13:13:12.929Z,87.7
2017-10-10T13:14:14.599Z,87.1
2017-10-10T13:15:16.277Z,87.0
2017-10-10T13:16:17.962Z,88.0
2017-10-10T13:17:19.619Z,87.8
2017-10-10T13:18:21.286Z,87.7
2017-10-10T13:19:22.955Z,89.1
2017-10-10T13:20:24.623Z,91.4
2017-10-10T13:21:26.282Z,89.5
2017-10-10T13:22:27.942Z,90.8
2017-10-10T13:23:29.614Z,90.3
2017-10-10T13:24:31.284Z,90.2
2017-10-10T13:25:32.947Z,91.3
2017-10-10T13:26:34.637Z,91.4
2017-10-10T13:27:36.295Z,90.0
2017-10-10T13:28:37.967Z,90.8
2017-10-10T13:29:39.632Z,91.1
2017-10-10T13:30:41.317Z,91.4
2017-10-10T13:31:42.993Z,93.1
2017-10-10T13:32:44.656Z,94.4
2017-10-10T13:33:46.348Z,94.8
2017-10-10T13:34:48.007Z,97.3
2017-10-10T13:35:51.910Z,98.8
2017-10-10T13:36:53.568Z,98.5
2017-10-10T13:37:55.838Z,98.8
2017-10-10T13:38:57.389Z,99.7
2017-10-10T13:39:59.046Z,100.0
2017-10-10T13:41:00.715Z,100.0
2017-10-10T13:42:02.372Z,100.0
2017-10-10T13:43:04.037Z,100.0
2017-10-10T13:44:05.700Z,100.0
2017-10-10T13:45:07.373Z,100.0
2017-10-10T13:46:09.046Z,100.0
2017-10-10T13:47:10.726Z,100.0
2017-10-10T13:48:12.389Z,100.0
2017-10-10T13:49:14.054Z,100.0
2017-10-10T13:50:15.766Z,100.0
2017-10-10T13:51:17.451Z,100.0
2017-10-10T13:52:19.128Z,100.0
2017-10-10T13:53:20.810Z,100.0
2017-10-10T13:54:22.470Z,100.0
2017-10-10T13:55:24.467Z,100.0
2017-10-10T14:01:57.740Z,100.0
2017-10-10T14:02:59.398Z,100.0